sensor_id;sensor_type;location;lat;lon;timestamp;temperature;humidity
43697;DHT22;29301;47.620;19.560;2023-07-30T00:01:40;22.10;69.30
43697;DHT22;29301;47.620;19.560;2023-07-30T00:04:06;22.10;69.10
43697;DHT22;29301;47.620;19.560;2023-07-30T00:06:32;22.10;68.80
43697;DHT22;29301;47.620;19.560;2023-07-30T00:08:57;22.10;68.90
43697;DHT22;29301;47.620;19.560;2023-07-30T00:11:23;22.20;68.60
43697;DHT22;29301;47.620;19.560;2023-07-30T00:13:48;22.20;68.50
43697;DHT22;29301;47.620;19.560;2023-07-30T00:16:14;22.20;68.50
43697;DHT22;29301;47.620;19.560;2023-07-30T00:18:40;22.20;68.80
43697;DHT22;29301;47.620;19.560;2023-07-30T00:21:05;22.10;68.70
43697;DHT22;29301;47.620;19.560;2023-07-30T00:23:31;22.10;68.80
43697;DHT22;29301;47.620;19.560;2023-07-30T00:25:57;22.10;69.90
43697;DHT22;29301;47.620;19.560;2023-07-30T00:28:22;21.60;72.00
43697;DHT22;29301;47.620;19.560;2023-07-30T00:30:48;21.10;75.10
43697;DHT22;29301;47.620;19.560;2023-07-30T00:33:14;20.90;78.10
43697;DHT22;29301;47.620;19.560;2023-07-30T00:35:39;20.80;80.60
43697;DHT22;29301;47.620;19.560;2023-07-30T00:38:05;20.50;83.80
43697;DHT22;29301;47.620;19.560;2023-07-30T00:40:30;20.50;85.20
43697;DHT22;29301;47.620;19.560;2023-07-30T00:42:56;20.60;85.30
43697;DHT22;29301;47.620;19.560;2023-07-30T00:45:22;20.70;84.60
43697;DHT22;29301;47.620;19.560;2023-07-30T00:47:48;20.90;83.40
43697;DHT22;29301;47.620;19.560;2023-07-30T00:50:14;20.80;83.30
43697;DHT22;29301;47.620;19.560;2023-07-30T00:52:40;20.80;83.90
43697;DHT22;29301;47.620;19.560;2023-07-30T00:55:07;20.90;82.90
43697;DHT22;29301;47.620;19.560;2023-07-30T00:57:34;21.10;81.60
43697;DHT22;29301;47.620;19.560;2023-07-30T01:00:01;21.20;79.90
43697;DHT22;29301;47.620;19.560;2023-07-30T01:02:31;21.30;78.70
43697;DHT22;29301;47.620;19.560;2023-07-30T01:04:57;21.40;78.00
43697;DHT22;29301;47.620;19.560;2023-07-30T01:07:25;21.40;77.20
43697;DHT22;29301;47.620;19.560;2023-07-30T01:09:51;21.50;77.00
43697;DHT22;29301;47.620;19.560;2023-07-30T01:12:17;21.50;76.80
43697;DHT22;29301;47.620;19.560;2023-07-30T01:14:45;21.50;76.40
43697;DHT22;29301;47.620;19.560;2023-07-30T01:17:11;21.50;76.40
43697;DHT22;29301;47.620;19.560;2023-07-30T01:19:37;21.50;76.50
43697;DHT22;29301;47.620;19.560;2023-07-30T01:22:03;21.40;77.10
43697;DHT22;29301;47.620;19.560;2023-07-30T01:24:29;21.10;78.80
43697;DHT22;29301;47.620;19.560;2023-07-30T01:26:59;21.00;79.90
43697;DHT22;29301;47.620;19.560;2023-07-30T01:29:52;20.60;81.80
43697;DHT22;29301;47.620;19.560;2023-07-30T01:32:26;20.30;85.80
43697;DHT22;29301;47.620;19.560;2023-07-30T01:34:54;20.30;86.00
43697;DHT22;29301;47.620;19.560;2023-07-30T01:37:21;20.50;84.90
43697;DHT22;29301;47.620;19.560;2023-07-30T01:39:48;20.60;83.80
43697;DHT22;29301;47.620;19.560;2023-07-30T01:42:15;20.60;82.90
43697;DHT22;29301;47.620;19.560;2023-07-30T01:44:41;20.70;82.50
43697;DHT22;29301;47.620;19.560;2023-07-30T01:47:06;20.80;81.40
43697;DHT22;29301;47.620;19.560;2023-07-30T01:49:32;21.00;80.90
43697;DHT22;29301;47.620;19.560;2023-07-30T01:51:58;21.00;80.30
43697;DHT22;29301;47.620;19.560;2023-07-30T01:54:24;21.10;79.90
43697;DHT22;29301;47.620;19.560;2023-07-30T01:56:50;21.10;79.90
43697;DHT22;29301;47.620;19.560;2023-07-30T01:59:15;21.20;79.30
43697;DHT22;29301;47.620;19.560;2023-07-30T02:01:41;21.20;78.80
43697;DHT22;29301;47.620;19.560;2023-07-30T02:04:07;21.20;78.40
43697;DHT22;29301;47.620;19.560;2023-07-30T02:06:33;21.20;78.00
43697;DHT22;29301;47.620;19.560;2023-07-30T02:08:59;21.20;77.80
43697;DHT22;29301;47.620;19.560;2023-07-30T02:11:24;21.10;77.80
43697;DHT22;29301;47.620;19.560;2023-07-30T02:13:50;21.00;78.40
43697;DHT22;29301;47.620;19.560;2023-07-30T02:16:15;20.70;80.30
43697;DHT22;29301;47.620;19.560;2023-07-30T02:18:41;20.50;81.90
43697;DHT22;29301;47.620;19.560;2023-07-30T02:21:07;20.30;83.20
43697;DHT22;29301;47.620;19.560;2023-07-30T02:23:32;20.30;84.50
43697;DHT22;29301;47.620;19.560;2023-07-30T02:25:58;20.30;84.80
43697;DHT22;29301;47.620;19.560;2023-07-30T02:28:24;20.20;85.80
43697;DHT22;29301;47.620;19.560;2023-07-30T02:30:49;19.90;88.90
43697;DHT22;29301;47.620;19.560;2023-07-30T02:33:15;19.80;90.90
43697;DHT22;29301;47.620;19.560;2023-07-30T02:35:43;19.90;91.90
43697;DHT22;29301;47.620;19.560;2023-07-30T02:38:08;19.90;92.00
43697;DHT22;29301;47.620;19.560;2023-07-30T02:40:34;20.10;91.70
43697;DHT22;29301;47.620;19.560;2023-07-30T02:43:00;20.30;91.00
43697;DHT22;29301;47.620;19.560;2023-07-30T02:45:25;20.40;90.00
43697;DHT22;29301;47.620;19.560;2023-07-30T02:47:51;20.60;88.30
43697;DHT22;29301;47.620;19.560;2023-07-30T02:50:17;20.70;86.80
43697;DHT22;29301;47.620;19.560;2023-07-30T02:52:42;20.80;85.90
43697;DHT22;29301;47.620;19.560;2023-07-30T02:55:08;20.90;84.90
43697;DHT22;29301;47.620;19.560;2023-07-30T02:57:34;20.90;83.90
43697;DHT22;29301;47.620;19.560;2023-07-30T02:59:59;20.60;84.80
43697;DHT22;29301;47.620;19.560;2023-07-30T03:02:25;20.50;86.20
43697;DHT22;29301;47.620;19.560;2023-07-30T03:04:51;20.50;87.10
43697;DHT22;29301;47.620;19.560;2023-07-30T03:07:16;20.60;87.00
43697;DHT22;29301;47.620;19.560;2023-07-30T03:09:43;20.60;87.20
43697;DHT22;29301;47.620;19.560;2023-07-30T03:12:09;20.60;88.00
43697;DHT22;29301;47.620;19.560;2023-07-30T03:14:34;20.60;88.70
43697;DHT22;29301;47.620;19.560;2023-07-30T03:17:00;20.70;88.10
43697;DHT22;29301;47.620;19.560;2023-07-30T03:19:26;20.70;87.40
43697;DHT22;29301;47.620;19.560;2023-07-30T03:21:51;20.80;86.30
43697;DHT22;29301;47.620;19.560;2023-07-30T03:24:17;20.90;85.80
43697;DHT22;29301;47.620;19.560;2023-07-30T03:26:43;20.90;84.60
43697;DHT22;29301;47.620;19.560;2023-07-30T03:29:08;21.00;84.00
43697;DHT22;29301;47.620;19.560;2023-07-30T03:31:34;21.00;83.50
43697;DHT22;29301;47.620;19.560;2023-07-30T03:34:00;21.00;83.10
43697;DHT22;29301;47.620;19.560;2023-07-30T03:36:25;21.10;82.60
43697;DHT22;29301;47.620;19.560;2023-07-30T03:38:51;21.10;82.50
43697;DHT22;29301;47.620;19.560;2023-07-30T03:41:16;21.10;82.30
43697;DHT22;29301;47.620;19.560;2023-07-30T03:43:42;21.00;83.80
43697;DHT22;29301;47.620;19.560;2023-07-30T03:46:08;20.80;85.80
43697;DHT22;29301;47.620;19.560;2023-07-30T03:48:33;20.80;86.50
43697;DHT22;29301;47.620;19.560;2023-07-30T03:50:59;20.80;87.40
43697;DHT22;29301;47.620;19.560;2023-07-30T03:53:25;20.90;87.70
43697;DHT22;29301;47.620;19.560;2023-07-30T03:55:50;20.90;88.20
43697;DHT22;29301;47.620;19.560;2023-07-30T03:58:16;20.90;88.30
43697;DHT22;29301;47.620;19.560;2023-07-30T04:00:42;21.00;87.60
43697;DHT22;29301;47.620;19.560;2023-07-30T04:03:08;21.10;87.20
43697;DHT22;29301;47.620;19.560;2023-07-30T04:05:33;21.10;86.80
43697;DHT22;29301;47.620;19.560;2023-07-30T04:07:59;21.20;86.40
43697;DHT22;29301;47.620;19.560;2023-07-30T04:10:25;21.30;86.10
43697;DHT22;29301;47.620;19.560;2023-07-30T04:12:51;21.30;85.30
43697;DHT22;29301;47.620;19.560;2023-07-30T04:15:17;21.30;85.30
43697;DHT22;29301;47.620;19.560;2023-07-30T04:17:42;21.30;85.90
43697;DHT22;29301;47.620;19.560;2023-07-30T04:20:09;21.30;86.50
43697;DHT22;29301;47.620;19.560;2023-07-30T04:22:35;21.30;87.30
43697;DHT22;29301;47.620;19.560;2023-07-30T04:25:01;21.40;88.00
43697;DHT22;29301;47.620;19.560;2023-07-30T04:27:27;21.40;88.00
43697;DHT22;29301;47.620;19.560;2023-07-30T04:29:52;21.30;88.20
43697;DHT22;29301;47.620;19.560;2023-07-30T04:32:18;21.30;88.20
43697;DHT22;29301;47.620;19.560;2023-07-30T04:34:43;21.30;88.00
43697;DHT22;29301;47.620;19.560;2023-07-30T04:37:09;21.30;88.20
43697;DHT22;29301;47.620;19.560;2023-07-30T04:39:35;21.30;87.90
43697;DHT22;29301;47.620;19.560;2023-07-30T04:42:02;21.40;88.20
43697;DHT22;29301;47.620;19.560;2023-07-30T04:44:27;21.50;87.70
43697;DHT22;29301;47.620;19.560;2023-07-30T04:46:53;21.60;87.20
43697;DHT22;29301;47.620;19.560;2023-07-30T04:49:19;21.60;86.20
43697;DHT22;29301;47.620;19.560;2023-07-30T04:51:45;21.70;85.80
43697;DHT22;29301;47.620;19.560;2023-07-30T04:54:10;21.70;85.90
43697;DHT22;29301;47.620;19.560;2023-07-30T04:56:36;21.70;86.00
43697;DHT22;29301;47.620;19.560;2023-07-30T04:59:02;21.80;85.50
43697;DHT22;29301;47.620;19.560;2023-07-30T05:01:28;21.80;85.00
43697;DHT22;29301;47.620;19.560;2023-07-30T05:03:54;21.80;84.60
43697;DHT22;29301;47.620;19.560;2023-07-30T05:06:20;21.90;84.40
43697;DHT22;29301;47.620;19.560;2023-07-30T05:08:45;21.90;84.30
43697;DHT22;29301;47.620;19.560;2023-07-30T05:11:11;22.00;84.00
43697;DHT22;29301;47.620;19.560;2023-07-30T05:13:36;22.00;83.70
43697;DHT22;29301;47.620;19.560;2023-07-30T05:16:02;22.00;82.80
43697;DHT22;29301;47.620;19.560;2023-07-30T05:18:28;22.10;82.30
43697;DHT22;29301;47.620;19.560;2023-07-30T05:20:54;22.10;82.00
43697;DHT22;29301;47.620;19.560;2023-07-30T05:23:20;22.20;81.90
43697;DHT22;29301;47.620;19.560;2023-07-30T05:25:46;22.20;81.50
43697;DHT22;29301;47.620;19.560;2023-07-30T05:28:12;22.30;81.20
43697;DHT22;29301;47.620;19.560;2023-07-30T05:30:37;22.30;81.10
43697;DHT22;29301;47.620;19.560;2023-07-30T05:33:03;22.30;80.90
43697;DHT22;29301;47.620;19.560;2023-07-30T05:35:29;22.40;81.00
43697;DHT22;29301;47.620;19.560;2023-07-30T05:37:54;22.40;80.60
43697;DHT22;29301;47.620;19.560;2023-07-30T05:40:21;22.40;80.60
43697;DHT22;29301;47.620;19.560;2023-07-30T05:42:46;22.40;80.30
43697;DHT22;29301;47.620;19.560;2023-07-30T05:45:12;22.50;80.10
43697;DHT22;29301;47.620;19.560;2023-07-30T05:47:38;22.50;79.50
43697;DHT22;29301;47.620;19.560;2023-07-30T05:50:04;22.60;79.10
43697;DHT22;29301;47.620;19.560;2023-07-30T05:52:30;22.50;78.90
43697;DHT22;29301;47.620;19.560;2023-07-30T05:54:56;22.50;79.40
43697;DHT22;29301;47.620;19.560;2023-07-30T05:57:21;22.60;79.60
43697;DHT22;29301;47.620;19.560;2023-07-30T05:59:47;22.60;79.20
43697;DHT22;29301;47.620;19.560;2023-07-30T06:02:13;22.60;78.60
43697;DHT22;29301;47.620;19.560;2023-07-30T06:04:38;22.70;77.90
43697;DHT22;29301;47.620;19.560;2023-07-30T06:07:04;22.80;78.30
43697;DHT22;29301;47.620;19.560;2023-07-30T06:09:30;22.80;78.50
43697;DHT22;29301;47.620;19.560;2023-07-30T06:11:57;22.80;78.00
43697;DHT22;29301;47.620;19.560;2023-07-30T06:14:23;22.90;77.80
43697;DHT22;29301;47.620;19.560;2023-07-30T06:16:49;22.90;77.40
43697;DHT22;29301;47.620;19.560;2023-07-30T06:19:15;22.90;76.10
43697;DHT22;29301;47.620;19.560;2023-07-30T06:21:41;22.90;75.90
43697;DHT22;29301;47.620;19.560;2023-07-30T06:24:06;22.90;76.10
43697;DHT22;29301;47.620;19.560;2023-07-30T06:26:32;23.00;76.20
43697;DHT22;29301;47.620;19.560;2023-07-30T06:28:58;23.00;76.00
43697;DHT22;29301;47.620;19.560;2023-07-30T06:31:23;23.00;75.50
43697;DHT22;29301;47.620;19.560;2023-07-30T06:33:49;23.00;75.40
43697;DHT22;29301;47.620;19.560;2023-07-30T06:36:15;23.00;75.30
43697;DHT22;29301;47.620;19.560;2023-07-30T06:38:40;23.10;77.30
43697;DHT22;29301;47.620;19.560;2023-07-30T06:41:06;23.10;76.80
43697;DHT22;29301;47.620;19.560;2023-07-30T06:43:32;23.10;76.40
43697;DHT22;29301;47.620;19.560;2023-07-30T06:45:57;23.20;76.50
43697;DHT22;29301;47.620;19.560;2023-07-30T06:48:23;23.20;76.80
43697;DHT22;29301;47.620;19.560;2023-07-30T06:50:49;23.30;76.20
43697;DHT22;29301;47.620;19.560;2023-07-30T06:53:14;23.30;75.10
43697;DHT22;29301;47.620;19.560;2023-07-30T06:55:40;23.40;75.30
43697;DHT22;29301;47.620;19.560;2023-07-30T06:58:06;23.30;75.20
43697;DHT22;29301;47.620;19.560;2023-07-30T07:00:31;23.40;75.00
43697;DHT22;29301;47.620;19.560;2023-07-30T07:02:57;23.50;75.20
43697;DHT22;29301;47.620;19.560;2023-07-30T07:05:23;23.60;74.70
43697;DHT22;29301;47.620;19.560;2023-07-30T07:07:48;23.60;74.50
43697;DHT22;29301;47.620;19.560;2023-07-30T07:10:14;23.70;74.00
43697;DHT22;29301;47.620;19.560;2023-07-30T07:12:40;23.80;74.30
43697;DHT22;29301;47.620;19.560;2023-07-30T07:15:06;23.80;73.50
43697;DHT22;29301;47.620;19.560;2023-07-30T07:17:32;23.90;71.60
43697;DHT22;29301;47.620;19.560;2023-07-30T07:19:58;23.90;71.00
43697;DHT22;29301;47.620;19.560;2023-07-30T07:22:24;24.00;69.30
43697;DHT22;29301;47.620;19.560;2023-07-30T07:24:52;24.10;68.90
43697;DHT22;29301;47.620;19.560;2023-07-30T07:27:18;24.30;68.70
43697;DHT22;29301;47.620;19.560;2023-07-30T07:29:44;24.30;68.40
43697;DHT22;29301;47.620;19.560;2023-07-30T07:32:10;24.40;67.90
43697;DHT22;29301;47.620;19.560;2023-07-30T07:34:36;24.50;66.70
43697;DHT22;29301;47.620;19.560;2023-07-30T07:37:02;24.50;64.20
43697;DHT22;29301;47.620;19.560;2023-07-30T07:39:28;24.50;65.90
43697;DHT22;29301;47.620;19.560;2023-07-30T07:41:54;24.50;64.70
43697;DHT22;29301;47.620;19.560;2023-07-30T07:44:20;24.50;66.00
43697;DHT22;29301;47.620;19.560;2023-07-30T07:46:47;24.60;65.00
43697;DHT22;29301;47.620;19.560;2023-07-30T07:49:12;24.60;63.70
43697;DHT22;29301;47.620;19.560;2023-07-30T07:51:38;24.60;62.90
43697;DHT22;29301;47.620;19.560;2023-07-30T07:54:04;24.60;63.20
43697;DHT22;29301;47.620;19.560;2023-07-30T07:56:30;24.60;64.00
43697;DHT22;29301;47.620;19.560;2023-07-30T07:58:57;24.60;64.00
43697;DHT22;29301;47.620;19.560;2023-07-30T08:01:22;24.50;64.10
43697;DHT22;29301;47.620;19.560;2023-07-30T08:03:48;24.50;64.30
43697;DHT22;29301;47.620;19.560;2023-07-30T08:06:14;24.50;64.70
43697;DHT22;29301;47.620;19.560;2023-07-30T08:08:39;24.50;65.20
43697;DHT22;29301;47.620;19.560;2023-07-30T08:11:06;24.40;66.10
43697;DHT22;29301;47.620;19.560;2023-07-30T08:13:33;24.40;66.80
43697;DHT22;29301;47.620;19.560;2023-07-30T08:15:58;24.40;67.00
43697;DHT22;29301;47.620;19.560;2023-07-30T08:18:24;24.40;67.10
43697;DHT22;29301;47.620;19.560;2023-07-30T08:20:50;24.40;65.60
43697;DHT22;29301;47.620;19.560;2023-07-30T08:23:16;24.30;64.90
43697;DHT22;29301;47.620;19.560;2023-07-30T08:25:41;24.30;67.60
43697;DHT22;29301;47.620;19.560;2023-07-30T08:28:07;24.30;70.50
43697;DHT22;29301;47.620;19.560;2023-07-30T08:30:33;24.20;73.50
43697;DHT22;29301;47.620;19.560;2023-07-30T08:32:58;24.10;74.80
43697;DHT22;29301;47.620;19.560;2023-07-30T08:35:24;24.00;78.70
43697;DHT22;29301;47.620;19.560;2023-07-30T08:37:52;24.00;80.00
43697;DHT22;29301;47.620;19.560;2023-07-30T08:40:18;24.00;81.30
43697;DHT22;29301;47.620;19.560;2023-07-30T08:42:43;24.00;82.60
43697;DHT22;29301;47.620;19.560;2023-07-30T08:45:09;24.00;85.20
43697;DHT22;29301;47.620;19.560;2023-07-30T08:47:35;24.00;84.50
43697;DHT22;29301;47.620;19.560;2023-07-30T08:50:02;24.00;86.10
43697;DHT22;29301;47.620;19.560;2023-07-30T08:52:29;23.90;86.50
43697;DHT22;29301;47.620;19.560;2023-07-30T08:54:55;23.80;85.90
43697;DHT22;29301;47.620;19.560;2023-07-30T08:57:22;23.80;87.70
43697;DHT22;29301;47.620;19.560;2023-07-30T08:59:54;23.70;85.10
43697;DHT22;29301;47.620;19.560;2023-07-30T09:02:31;23.70;86.30
43697;DHT22;29301;47.620;19.560;2023-07-30T09:05:00;23.70;85.10
43697;DHT22;29301;47.620;19.560;2023-07-30T09:07:26;23.70;86.50
43697;DHT22;29301;47.620;19.560;2023-07-30T09:09:51;23.60;88.00
43697;DHT22;29301;47.620;19.560;2023-07-30T09:12:17;23.60;90.20
43697;DHT22;29301;47.620;19.560;2023-07-30T09:14:43;23.70;89.10
43697;DHT22;29301;47.620;19.560;2023-07-30T09:17:18;23.70;89.10
43697;DHT22;29301;47.620;19.560;2023-07-30T09:19:44;23.70;88.60
43697;DHT22;29301;47.620;19.560;2023-07-30T09:22:13;23.80;89.40
43697;DHT22;29301;47.620;19.560;2023-07-30T09:24:43;23.80;90.10
43697;DHT22;29301;47.620;19.560;2023-07-30T09:27:09;23.80;89.00
43697;DHT22;29301;47.620;19.560;2023-07-30T09:29:34;23.90;90.10
43697;DHT22;29301;47.620;19.560;2023-07-30T09:32:00;23.90;89.90
43697;DHT22;29301;47.620;19.560;2023-07-30T09:34:26;23.90;89.40
43697;DHT22;29301;47.620;19.560;2023-07-30T09:36:53;23.90;88.10
43697;DHT22;29301;47.620;19.560;2023-07-30T09:39:24;24.00;88.20
43697;DHT22;29301;47.620;19.560;2023-07-30T09:41:51;23.90;84.10
43697;DHT22;29301;47.620;19.560;2023-07-30T09:44:18;23.80;83.30
43697;DHT22;29301;47.620;19.560;2023-07-30T09:46:46;23.80;84.80
43697;DHT22;29301;47.620;19.560;2023-07-30T09:49:11;23.80;84.70
43697;DHT22;29301;47.620;19.560;2023-07-30T09:51:38;23.80;85.70
43697;DHT22;29301;47.620;19.560;2023-07-30T09:54:10;23.70;85.90
43697;DHT22;29301;47.620;19.560;2023-07-30T09:56:36;23.80;86.70
43697;DHT22;29301;47.620;19.560;2023-07-30T09:59:04;23.70;87.40
43697;DHT22;29301;47.620;19.560;2023-07-30T10:01:30;23.70;85.90
43697;DHT22;29301;47.620;19.560;2023-07-30T10:03:57;23.70;86.00
43697;DHT22;29301;47.620;19.560;2023-07-30T10:06:27;23.60;86.60
43697;DHT22;29301;47.620;19.560;2023-07-30T10:08:56;23.60;86.30
43697;DHT22;29301;47.620;19.560;2023-07-30T10:11:23;23.60;87.20
43697;DHT22;29301;47.620;19.560;2023-07-30T10:13:50;23.60;87.40
43697;DHT22;29301;47.620;19.560;2023-07-30T10:16:17;23.70;87.80
43697;DHT22;29301;47.620;19.560;2023-07-30T10:18:43;23.70;87.30
43697;DHT22;29301;47.620;19.560;2023-07-30T10:21:11;23.70;88.30
43697;DHT22;29301;47.620;19.560;2023-07-30T10:23:57;23.60;89.80
43697;DHT22;29301;47.620;19.560;2023-07-30T10:26:30;23.60;90.20
43697;DHT22;29301;47.620;19.560;2023-07-30T10:29:18;23.50;91.40
43697;DHT22;29301;47.620;19.560;2023-07-30T10:31:54;23.00;95.00
43697;DHT22;29301;47.620;19.560;2023-07-30T10:34:21;22.70;97.10
43697;DHT22;29301;47.620;19.560;2023-07-30T10:36:49;22.50;96.40
43697;DHT22;29301;47.620;19.560;2023-07-30T10:39:19;22.50;96.60
43697;DHT22;29301;47.620;19.560;2023-07-30T10:41:46;22.50;96.40
43697;DHT22;29301;47.620;19.560;2023-07-30T10:44:32;22.60;96.30
43697;DHT22;29301;47.620;19.560;2023-07-30T10:47:00;22.70;95.60
43697;DHT22;29301;47.620;19.560;2023-07-30T10:49:26;22.60;95.90
43697;DHT22;29301;47.620;19.560;2023-07-30T10:51:56;22.70;96.30
43697;DHT22;29301;47.620;19.560;2023-07-30T10:54:22;22.70;96.00
43697;DHT22;29301;47.620;19.560;2023-07-30T10:56:48;22.90;95.40
43697;DHT22;29301;47.620;19.560;2023-07-30T10:59:15;22.90;93.70
43697;DHT22;29301;47.620;19.560;2023-07-30T11:01:43;23.00;92.90
43697;DHT22;29301;47.620;19.560;2023-07-30T11:04:20;23.00;92.30
43697;DHT22;29301;47.620;19.560;2023-07-30T11:06:48;23.10;92.80
43697;DHT22;29301;47.620;19.560;2023-07-30T11:09:25;23.10;93.30
43697;DHT22;29301;47.620;19.560;2023-07-30T11:11:54;23.10;93.10
43697;DHT22;29301;47.620;19.560;2023-07-30T11:14:24;23.10;92.70
43697;DHT22;29301;47.620;19.560;2023-07-30T11:16:56;23.20;92.40
43697;DHT22;29301;47.620;19.560;2023-07-30T11:19:26;23.20;92.00
43697;DHT22;29301;47.620;19.560;2023-07-30T11:21:55;23.30;91.90
43697;DHT22;29301;47.620;19.560;2023-07-30T11:24:21;23.30;91.50
43697;DHT22;29301;47.620;19.560;2023-07-30T11:27:00;23.40;91.60
43697;DHT22;29301;47.620;19.560;2023-07-30T11:29:26;23.40;92.10
43697;DHT22;29301;47.620;19.560;2023-07-30T11:31:56;23.30;92.20
43697;DHT22;29301;47.620;19.560;2023-07-30T11:34:23;23.30;92.60
43697;DHT22;29301;47.620;19.560;2023-07-30T11:36:49;23.30;92.20
43697;DHT22;29301;47.620;19.560;2023-07-30T11:39:15;23.30;92.50
43697;DHT22;29301;47.620;19.560;2023-07-30T11:41:41;23.40;92.90
43697;DHT22;29301;47.620;19.560;2023-07-30T11:44:07;23.50;92.80
43697;DHT22;29301;47.620;19.560;2023-07-30T11:46:32;23.50;92.40
43697;DHT22;29301;47.620;19.560;2023-07-30T11:49:14;23.60;92.10
43697;DHT22;29301;47.620;19.560;2023-07-30T11:51:42;23.50;91.60
43697;DHT22;29301;47.620;19.560;2023-07-30T11:54:17;23.60;91.40
43697;DHT22;29301;47.620;19.560;2023-07-30T11:56:43;23.60;91.50
43697;DHT22;29301;47.620;19.560;2023-07-30T11:59:09;23.70;90.70
43697;DHT22;29301;47.620;19.560;2023-07-30T12:01:35;23.70;90.80
43697;DHT22;29301;47.620;19.560;2023-07-30T12:04:04;23.70;91.10
43697;DHT22;29301;47.620;19.560;2023-07-30T12:06:51;23.70;91.30
43697;DHT22;29301;47.620;19.560;2023-07-30T12:09:22;23.70;91.10
43697;DHT22;29301;47.620;19.560;2023-07-30T12:11:58;23.70;91.10
43697;DHT22;29301;47.620;19.560;2023-07-30T12:14:27;23.80;90.20
43697;DHT22;29301;47.620;19.560;2023-07-30T12:16:59;23.80;88.60
43697;DHT22;29301;47.620;19.560;2023-07-30T12:19:25;23.70;84.80
43697;DHT22;29301;47.620;19.560;2023-07-30T12:21:51;23.80;85.60
43697;DHT22;29301;47.620;19.560;2023-07-30T12:24:16;23.70;86.00
43697;DHT22;29301;47.620;19.560;2023-07-30T12:26:42;23.70;84.40
43697;DHT22;29301;47.620;19.560;2023-07-30T12:29:07;23.70;82.10
43697;DHT22;29301;47.620;19.560;2023-07-30T12:31:33;23.60;82.80
43697;DHT22;29301;47.620;19.560;2023-07-30T12:33:59;23.60;82.80
43697;DHT22;29301;47.620;19.560;2023-07-30T12:36:24;23.50;82.80
43697;DHT22;29301;47.620;19.560;2023-07-30T12:38:51;23.50;84.30
43697;DHT22;29301;47.620;19.560;2023-07-30T12:41:19;23.40;85.50
43697;DHT22;29301;47.620;19.560;2023-07-30T12:43:54;23.40;87.80
43697;DHT22;29301;47.620;19.560;2023-07-30T12:46:20;23.40;89.00
43697;DHT22;29301;47.620;19.560;2023-07-30T12:48:46;23.50;89.80
43697;DHT22;29301;47.620;19.560;2023-07-30T12:51:12;23.50;90.00
43697;DHT22;29301;47.620;19.560;2023-07-30T12:53:38;23.40;90.60
43697;DHT22;29301;47.620;19.560;2023-07-30T12:56:03;23.50;90.30
43697;DHT22;29301;47.620;19.560;2023-07-30T12:58:29;23.40;90.40
43697;DHT22;29301;47.620;19.560;2023-07-30T13:00:55;23.40;90.90
43697;DHT22;29301;47.620;19.560;2023-07-30T13:03:20;23.40;91.20
43697;DHT22;29301;47.620;19.560;2023-07-30T13:05:46;23.40;91.70
43697;DHT22;29301;47.620;19.560;2023-07-30T13:08:11;23.40;92.00
43697;DHT22;29301;47.620;19.560;2023-07-30T13:10:37;23.50;92.00
43697;DHT22;29301;47.620;19.560;2023-07-30T13:13:03;23.50;92.20
43697;DHT22;29301;47.620;19.560;2023-07-30T13:15:28;23.60;92.70
43697;DHT22;29301;47.620;19.560;2023-07-30T13:17:54;23.60;92.00
43697;DHT22;29301;47.620;19.560;2023-07-30T13:20:20;23.50;91.00
43697;DHT22;29301;47.620;19.560;2023-07-30T13:22:46;23.50;91.10
43697;DHT22;29301;47.620;19.560;2023-07-30T13:25:11;23.50;91.20
43697;DHT22;29301;47.620;19.560;2023-07-30T13:27:37;23.50;91.60
43697;DHT22;29301;47.620;19.560;2023-07-30T13:30:03;23.50;91.90
43697;DHT22;29301;47.620;19.560;2023-07-30T13:32:29;23.60;91.70
43697;DHT22;29301;47.620;19.560;2023-07-30T13:34:55;23.60;91.40
43697;DHT22;29301;47.620;19.560;2023-07-30T13:37:20;23.70;91.50
43697;DHT22;29301;47.620;19.560;2023-07-30T13:39:46;23.80;92.20
43697;DHT22;29301;47.620;19.560;2023-07-30T13:42:11;23.80;91.10
43697;DHT22;29301;47.620;19.560;2023-07-30T13:44:37;23.80;91.20
43697;DHT22;29301;47.620;19.560;2023-07-30T13:47:03;23.80;91.30
43697;DHT22;29301;47.620;19.560;2023-07-30T13:49:29;23.80;91.90
43697;DHT22;29301;47.620;19.560;2023-07-30T13:51:54;23.80;91.40
43697;DHT22;29301;47.620;19.560;2023-07-30T13:54:20;23.80;89.90
43697;DHT22;29301;47.620;19.560;2023-07-30T13:56:46;23.90;88.80
43697;DHT22;29301;47.620;19.560;2023-07-30T13:59:11;24.00;86.90
43697;DHT22;29301;47.620;19.560;2023-07-30T14:01:37;23.90;86.30
43697;DHT22;29301;47.620;19.560;2023-07-30T14:04:03;24.00;87.60
43697;DHT22;29301;47.620;19.560;2023-07-30T14:06:28;23.90;85.60
43697;DHT22;29301;47.620;19.560;2023-07-30T14:08:54;23.90;84.60
43697;DHT22;29301;47.620;19.560;2023-07-30T14:11:20;23.90;86.60
43697;DHT22;29301;47.620;19.560;2023-07-30T14:13:46;23.90;87.60
43697;DHT22;29301;47.620;19.560;2023-07-30T14:16:11;24.00;88.40
43697;DHT22;29301;47.620;19.560;2023-07-30T14:18:38;24.00;88.80
43697;DHT22;29301;47.620;19.560;2023-07-30T14:21:04;24.10;88.90
43697;DHT22;29301;47.620;19.560;2023-07-30T14:23:30;24.20;87.10
43697;DHT22;29301;47.620;19.560;2023-07-30T14:25:56;24.20;83.40
43697;DHT22;29301;47.620;19.560;2023-07-30T14:28:21;24.20;83.40
43697;DHT22;29301;47.620;19.560;2023-07-30T14:30:47;24.30;84.50
43697;DHT22;29301;47.620;19.560;2023-07-30T14:33:13;24.40;79.70
43697;DHT22;29301;47.620;19.560;2023-07-30T14:35:39;24.60;81.10
43697;DHT22;29301;47.620;19.560;2023-07-30T14:38:06;24.60;80.60
43697;DHT22;29301;47.620;19.560;2023-07-30T14:40:32;24.70;78.10
43697;DHT22;29301;47.620;19.560;2023-07-30T14:42:58;24.70;77.80
43697;DHT22;29301;47.620;19.560;2023-07-30T14:45:24;24.70;76.20
43697;DHT22;29301;47.620;19.560;2023-07-30T14:47:49;24.70;76.50
43697;DHT22;29301;47.620;19.560;2023-07-30T14:50:15;24.80;76.60
43697;DHT22;29301;47.620;19.560;2023-07-30T14:52:41;24.80;74.50
43697;DHT22;29301;47.620;19.560;2023-07-30T14:55:07;24.60;76.40
43697;DHT22;29301;47.620;19.560;2023-07-30T14:57:32;24.60;77.70
43697;DHT22;29301;47.620;19.560;2023-07-30T14:59:59;24.50;76.60
43697;DHT22;29301;47.620;19.560;2023-07-30T15:02:26;24.50;77.60
43697;DHT22;29301;47.620;19.560;2023-07-30T15:04:53;24.70;78.40
43697;DHT22;29301;47.620;19.560;2023-07-30T15:07:19;24.70;77.20
43697;DHT22;29301;47.620;19.560;2023-07-30T15:09:44;24.70;76.00
43697;DHT22;29301;47.620;19.560;2023-07-30T15:12:12;24.70;74.30